TimeCST,TemperatureF,Dew PointF,Humidity,Sea Level PressureIn,VisibilityMPH,Wind Direction,Wind SpeedMPH,Gust SpeedMPH,PrecipitationIn,Events,Conditions,WindDirDegrees,DateUTC
12:16 AM,44.6,30.2,57,30.06,10.0,SE,5.8,-,N/A,,Clear,130,2012-12-06 06:16:00
12:35 AM,42.8,30.2,61,30.05,10.0,SE,5.8,-,N/A,,Clear,130,2012-12-06 06:35:00
12:55 AM,42.8,30.2,61,30.04,10.0,SE,5.8,-,N/A,,Clear,130,2012-12-06 06:55:00
1:35 AM,42.8,30.2,61,30.03,10.0,SE,5.8,-,N/A,,Clear,130,2012-12-06 07:35:00
1:55 AM,42.8,30.2,61,30.02,10.0,SE,4.6,-,N/A,,Clear,140,2012-12-06 07:55:00
2:15 AM,41.0,30.2,65,30.02,10.0,SE,5.8,-,N/A,,Clear,130,2012-12-06 08:15:00
2:35 AM,42.8,32.0,66,30.01,10.0,SE,3.5,-,N/A,,Clear,130,2012-12-06 08:35:00
2:55 AM,42.8,32.0,66,30.00,10.0,SE,5.8,-,N/A,,Clear,140,2012-12-06 08:55:00
3:15 AM,42.8,32.0,66,29.99,10.0,ESE,4.6,-,N/A,,Clear,120,2012-12-06 09:15:00
3:35 AM,42.8,32.0,66,29.99,10.0,Calm,Calm,-,N/A,,Clear,0,2012-12-06 09:35:00
3:55 AM,42.8,32.0,66,29.99,10.0,SE,3.5,-,N/A,,Clear,130,2012-12-06 09:55:00
4:15 AM,41.0,33.8,76,29.99,10.0,Calm,Calm,-,N/A,,Clear,0,2012-12-06 10:15:00
4:35 AM,39.2,33.8,81,29.98,10.0,Calm,Calm,-,N/A,,Clear,0,2012-12-06 10:35:00
5:15 AM,39.2,32.0,75,29.98,10.0,Calm,Calm,-,N/A,,Clear,0,2012-12-06 11:15:00
5:35 AM,39.2,33.8,81,29.98,10.0,ESE,3.5,-,N/A,,Clear,110,2012-12-06 11:35:00
5:55 AM,39.2,33.8,81,29.97,10.0,ESE,3.5,-,N/A,,Clear,110,2012-12-06 11:55:00
6:35 AM,37.4,32.0,81,29.96,10.0,ESE,5.8,-,N/A,,Clear,120,2012-12-06 12:35:00
6:55 AM,39.2,35.6,87,29.96,10.0,ESE,4.6,-,N/A,,Clear,120,2012-12-06 12:55:00
7:15 AM,39.2,33.8,81,29.97,10.0,Calm,Calm,-,N/A,,Clear,0,2012-12-06 13:15:00
7:36 AM,39.2,35.6,87,29.97,10.0,Calm,Calm,-,N/A,,Clear,0,2012-12-06 13:36:00
7:55 AM,41.0,37.4,87,29.97,10.0,Calm,Calm,-,N/A,,Clear,0,2012-12-06 13:55:00
8:15 AM,44.6,39.2,81,29.97,10.0,ESE,3.5,-,N/A,,Clear,120,2012-12-06 14:15:00
8:35 AM,46.4,39.2,76,29.97,10.0,SE,5.8,-,N/A,,Clear,130,2012-12-06 14:35:00
8:55 AM,46.4,41.0,81,29.97,10.0,SE,6.9,-,N/A,,Clear,130,2012-12-06 14:55:00
9:15 AM,50.0,42.8,76,29.96,10.0,SE,9.2,-,N/A,,Clear,130,2012-12-06 15:15:00
9:35 AM,51.8,42.8,71,29.96,10.0,SE,8.1,-,N/A,,Clear,140,2012-12-06 15:35:00
9:55 AM,53.6,44.6,72,29.97,10.0,SSE,6.9,-,N/A,,Clear,150,2012-12-06 15:55:00
10:15 AM,53.6,44.6,72,29.96,10.0,SE,8.1,-,N/A,,Clear,140,2012-12-06 16:15:00
10:35 AM,55.4,44.6,67,29.96,10.0,SSE,9.2,-,N/A,,Clear,150,2012-12-06 16:35:00
10:55 AM,55.4,44.6,67,29.95,10.0,SSE,9.2,-,N/A,,Clear,150,2012-12-06 16:55:00
11:16 AM,57.2,44.6,63,29.94,10.0,SSE,8.1,-,N/A,,Clear,160,2012-12-06 17:16:00
11:35 AM,59.0,44.6,59,29.93,10.0,South,6.9,-,N/A,,Clear,180,2012-12-06 17:35:00
11:55 AM,59.0,44.6,59,29.93,10.0,South,5.8,-,N/A,,Clear,180,2012-12-06 17:55:00
12:15 PM,60.8,44.6,55,29.92,10.0,SSE,5.8,-,N/A,,Clear,160,2012-12-06 18:15:00
12:35 PM,60.8,44.6,55,29.91,10.0,South,4.6,-,N/A,,Clear,170,2012-12-06 18:35:00
1:15 PM,62.6,44.6,52,29.89,10.0,SSE,5.8,-,N/A,,Clear,160,2012-12-06 19:15:00
1:35 PM,64.4,42.8,45,29.87,10.0,South,5.8,-,N/A,,Clear,180,2012-12-06 19:35:00
1:55 PM,64.4,42.8,45,29.86,10.0,South,9.2,-,N/A,,Clear,170,2012-12-06 19:55:00
2:15 PM,64.4,44.6,49,29.85,10.0,South,10.4,-,N/A,,Clear,170,2012-12-06 20:15:00
2:36 PM,64.4,42.8,45,29.85,10.0,SSE,9.2,-,N/A,,Clear,150,2012-12-06 20:36:00
2:55 PM,64.4,41.0,42,29.85,10.0,South,9.2,-,N/A,,Clear,180,2012-12-06 20:55:00
3:15 PM,64.4,42.8,45,29.84,10.0,South,5.8,-,N/A,,Clear,180,2012-12-06 21:15:00
3:55 PM,64.4,42.8,45,29.84,10.0,SSE,8.1,-,N/A,,Clear,160,2012-12-06 21:55:00
4:15 PM,62.6,41.0,45,29.84,10.0,South,5.8,-,N/A,,Clear,170,2012-12-06 22:15:00
4:35 PM,60.8,41.0,48,29.84,10.0,South,4.6,-,N/A,,Clear,170,2012-12-06 22:35:00
4:56 PM,59.0,39.2,48,29.84,10.0,South,6.9,-,N/A,,Clear,170,2012-12-06 22:56:00
5:15 PM,57.2,39.2,51,29.84,10.0,South,4.6,-,N/A,,Clear,170,2012-12-06 23:15:00
5:35 PM,55.4,39.2,54,29.84,10.0,SSE,4.6,-,N/A,,Clear,160,2012-12-06 23:35:00
6:55 PM,53.6,44.6,72,29.85,10.0,SSE,4.6,-,N/A,,Clear,150,2012-12-07 00:55:00
7:35 PM,51.8,44.6,76,29.86,10.0,SSE,4.6,-,N/A,,Clear,160,2012-12-07 01:35:00
7:55 PM,53.6,44.6,72,29.87,10.0,South,3.5,-,N/A,,Clear,190,2012-12-07 01:55:00
8:35 PM,50.0,44.6,82,29.88,10.0,West,4.6,-,N/A,,Clear,260,2012-12-07 02:35:00
8:55 PM,48.2,44.6,87,29.88,10.0,Calm,Calm,-,N/A,,Scattered Clouds,0,2012-12-07 02:55:00
9:55 PM,53.6,46.4,77,29.88,10.0,SSW,6.9,-,N/A,,Overcast,200,2012-12-07 03:55:00
10:15 PM,53.6,46.4,77,29.88,10.0,South,6.9,-,N/A,,Overcast,180,2012-12-07 04:15:00
10:35 PM,51.8,46.4,82,29.89,10.0,South,4.6,-,N/A,,Mostly Cloudy,190,2012-12-07 04:35:00
10:56 PM,51.8,46.4,82,29.89,10.0,South,5.8,-,N/A,,Partly Cloudy,190,2012-12-07 04:56:00
11:15 PM,51.8,44.6,76,29.89,10.0,SSW,5.8,-,N/A,,Partly Cloudy,200,2012-12-07 05:15:00
11:35 PM,51.8,44.6,76,29.89,10.0,South,6.9,-,N/A,,Partly Cloudy,190,2012-12-07 05:35:00